Chedworth Roman Trail 2016
10 Apr 2016

     
Click on your name for more detailed race data.

Page 1 of 6 (290 items)
PosBib NoNameTimeChip TimeCategoryCat PosGenderGen PosClubPace
1236Dave ROPER59:58.759:57.7Top 3 Male1Male1CHELTENHAM AND COUNTY HARRIERS10.0 m/hr
2309Marc FALLOWS1:02:44.21:02:42.3Top 3 Male2Male2CHELTENHAM AND COUNTY HARRIERS9.6 m/hr
3211Jacob PICKERING1:04:18.51:04:16.4Top 3 Male3Male3CHELTENHAM AND COUNTY HARRIERS9.3 m/hr
4333Andy GORE1:04:54.51:04:52.6Vet401Male4CHELTENHAM AND COUNTY HARRIERS9.2 m/hr
5301Matt WITHEY1:05:37.71:05:31.6SenM1Male59.1 m/hr
6335Charles GOODWIN1:07:15.81:07:13.5Vet501Male6CLC STRIDERS8.9 m/hr
7157David KANE1:07:19.71:07:16.7SenM2Male7LEEDS UNIVERSITY AC/CC CLUB8.9 m/hr
8344Ian KEYTE1:07:52.01:07:50.6Vet502Male8BROMSGROVE AND REDDITCH8.8 m/hr
9316David QULI1:08:04.61:08:00.9Vet402Male98.8 m/hr
10194Chris MOSS1:08:18.61:08:16.0SenM3Male10VEGAN RUNNERS UK8.8 m/hr
11296Jake WICKENS1:08:20.71:08:19.8SenM4Male118.8 m/hr
1217Joe BARROWCLOUGH1:08:32.21:08:30.9SenM5Male12CIRENCESTER AC8.8 m/hr
13306Beth PUDIFOOT1:09:09.01:09:05.7Top 3 Female1Female18.7 m/hr
1458Phil COLLINS1:09:24.21:09:22.2Vet403Male13CLEVEDON AC8.6 m/hr
15280Holly TUGWELL1:09:29.31:09:26.5Top 3 Female2Female2CIRENCESTER AC8.6 m/hr
1625Richard BIRCH1:09:39.31:09:37.0Vet404Male14CHELTENHAM AND COUNTY HARRIERS8.6 m/hr
17177Dave LOWTHIAN1:09:45.31:09:42.2Vet405Male15FOREST OF DEAN AC8.6 m/hr
18336Simon BRIAN1:09:48.81:09:46.5SenM6Male16ENE TRIATHLON8.6 m/hr
1935Rob BROWN1:09:54.11:09:46.9SenM7Male178.6 m/hr
20218Matt POWELL1:10:44.01:10:41.8Vet406Male18GLOUCESTER AC8.5 m/hr
21129Oliver HAZEL1:11:33.61:11:24.5SenM8Male19RUNNING SOMEWHERE ELSE8.4 m/hr
22341Prashanth Kumar SRIPATHI1:11:56.51:11:50.7SenM9Male20ALMOST ATHLETES8.3 m/hr
23107Peter GILDER1:12:08.21:12:05.3Vet407Male21SWINDON STRIDERS8.3 m/hr
24291Sarah WHEELER1:12:16.71:12:14.7Top 3 Female3Female3STRATFORD UPON AVON AC8.3 m/hr
25313Chris COLBECK1:12:18.71:12:11.1Vet408Male22WITNEY ROAD RUNNERS8.3 m/hr
2660Neil CORBIERE1:12:28.31:12:20.6SenM10Male23CIRENCESTER AC8.3 m/hr
27340Kevin HENNESSY1:12:37.81:12:34.5Vet409Male24WITNEY ROAD RUNNERS8.3 m/hr
28261Ian SUMMERS1:12:50.41:12:46.1Vet4010Male25GLOUCESTER AC8.2 m/hr
29252Neil SMITH1:12:55.71:12:14.7Vet4011Male26CANICROSS WILTSHIRE8.2 m/hr
30256Nick SPICE1:13:07.71:12:55.0SenM11Male27ALMOST ATHLETES8.2 m/hr
31229David RICHARDS1:13:33.81:13:19.3Vet4012Male288.2 m/hr
32195Paul MOSS1:13:41.41:13:38.4SenM12Male298.1 m/hr
3362Tristan COURT1:14:03.81:13:56.8SenM13Male308.1 m/hr
3488David DURDEN1:14:04.61:14:00.5Vet503Male31DURSLEY RUNNING CLUB8.1 m/hr
35302Steve WOOD1:14:30.81:14:28.8Vet4013Male32CLEVEDON AC8.1 m/hr
36192Niki MORGAN1:14:44.61:14:41.3Vet451Female4CHEPSTOW HARRIERS8.0 m/hr
3722Oliver BELL1:14:54.41:14:44.9Vet4014Male33ALMOST ATHLETES8.0 m/hr
3883Nick DONKIN1:14:55.21:14:49.9SenM14Male348.0 m/hr
39115Robert GREEN1:14:57.31:14:51.2Vet504Male35WITNEY ROAD RUNNERS8.0 m/hr
40321David GEORGE1:15:14.71:15:12.9Vet601Male36WESTBURY HARRIERS8.0 m/hr
41337Andy BULINGHAM1:15:21.21:15:12.2Vet505Male378.0 m/hr
4279Diana DEE1:15:27.21:14:57.0Vet452Female5HIGHWORTH RC8.0 m/hr
43110Charlotte GOODALL1:15:41.31:15:39.3Vet351Female6HEADINGTON RR7.9 m/hr
44263Ross SWAIN1:16:03.21:15:58.1SenM15Male387.9 m/hr
45143Ionel IANCU1:16:09.51:16:01.3Vet4015Male39CIRENCESTER AC7.9 m/hr
4644Danny CARROLL1:16:11.01:16:01.9Vet4016Male40ALMOST ATHLETES7.9 m/hr
477Daniel BADGER1:16:23.31:16:14.6SenM16Male41ALMOST ATHLETES7.9 m/hr
48332James HUTCHESON1:16:28.41:16:23.7Vet4017Male42CHIPPENHAM HARRIERS7.8 m/hr
49269Paul THOMAS1:16:28.71:16:15.6Vet4018Male43ALMOST ATHLETES7.8 m/hr
50331Alan WILCOX1:16:29.11:16:22.5Vet4019Male44BRISTOL AND WEST AC7.8 m/hr
Page 1 of 6 (290 items)
   

fb